Time;durP1;ratioP1;P1;durP2;ratioP2;P2;SDS_P1;SDS_P2;PMS_P1;PMS_P2;Temp;Humidity;BMP_temperature;BMP_pressure;BME280_temperature;BME280_humidity;BME280_pressure;Samples;Min_cycle;Max_cycle;Signal;HPM_P1;HPM_P2
2024/01/26 00:01:03;;;;;;;1.87;1.40;;;9.60;90.50;;;11.28;62.70;98660.66;5070575;28;20044;-63
2024/01/26 00:03:31;;;;;;;1.90;1.63;;;9.60;90.50;;;11.28;62.10;98659.84;5070689;28;20041;-63
2024/01/26 00:06:00;;;;;;;3.00;2.03;;;9.70;90.50;;;11.28;62.35;98651.84;5070500;28;20531;-63
2024/01/26 00:08:28;;;;;;;1.77;1.63;;;9.70;90.80;;;11.29;62.34;98650.88;5070674;28;20444;-63
2024/01/26 00:10:57;;;;;;;1.90;1.30;;;9.70;91.00;;;11.30;62.79;98647.19;5069527;28;20043;-63
2024/01/26 00:13:24;;;;;;;2.33;1.37;;;9.70;91.20;;;11.28;62.68;98641.16;5062046;28;20044;-63
2024/01/26 00:15:53;;;;;;;2.67;1.83;;;9.60;92.10;;;11.19;62.59;98646.38;5070595;28;20492;-63
2024/01/26 00:18:20;;;;;;;1.70;1.37;;;9.50;93.00;;;11.16;63.03;98651.97;5070206;28;20060;-64
2024/01/26 00:20:48;;;;;;;2.20;1.57;;;9.60;93.30;;;11.14;63.04;98648.59;5070586;28;20044;-63
2024/01/26 00:23:16;;;;;;;2.90;1.50;;;9.50;93.60;;;11.18;63.21;98649.16;5070157;28;20063;-63
2024/01/26 00:25:43;;;;;;;2.83;1.67;;;9.60;93.10;;;11.17;62.86;98648.34;5070182;28;20049;-63
2024/01/26 00:28:11;;;;;;;2.00;1.50;;;9.50;93.70;;;11.14;63.31;98647.78;5070541;28;20036;-63
2024/01/26 00:30:38;;;;;;;3.00;2.07;;;9.50;93.50;;;11.14;62.86;98648.59;5069244;28;20051;-64
2024/01/26 00:33:06;;;;;;;2.70;1.57;;;9.50;93.50;;;11.13;63.17;98646.94;5068641;28;20538;-64
2024/01/26 00:35:34;;;;;;;4.43;2.03;;;9.50;93.60;;;11.13;63.36;98646.09;5070014;28;20051;-63
2024/01/26 00:38:02;;;;;;;1.70;1.33;;;9.50;93.60;;;11.13;63.50;98643.44;5069405;28;20504;-63
2024/01/26 00:40:30;;;;;;;1.90;1.40;;;9.50;94.10;;;11.13;63.54;98652.28;5063629;28;20040;-64
2024/01/26 00:42:57;;;;;;;1.57;1.13;;;9.50;94.30;;;11.12;63.44;98644.41;5073731;28;20044;-63
2024/01/26 00:45:25;;;;;;;2.40;1.60;;;9.50;94.40;;;11.15;63.90;98649.47;5074183;28;20049;-64
2024/01/26 00:47:53;;;;;;;1.67;1.20;;;9.60;94.50;;;11.12;63.96;98644.41;5074470;28;20045;-63
2024/01/26 00:50:20;;;;;;;2.10;1.37;;;9.60;94.90;;;11.12;63.97;98644.41;5073870;28;20048;-63
2024/01/26 00:52:49;;;;;;;2.73;1.30;;;9.60;94.70;;;11.12;63.95;98639.91;5073662;28;20500;-63
2024/01/26 00:55:16;;;;;;;2.93;1.43;;;9.60;94.60;;;11.10;63.88;98649.03;5073835;28;20040;-63
2024/01/26 00:57:44;;;;;;;2.10;1.63;;;9.60;94.90;;;11.10;64.02;98651.69;5074343;28;20384;-62
2024/01/26 01:00:13;;;;;;;1.60;1.27;;;9.60;95.10;;;11.15;64.24;98646.81;5072888;28;20389;-63
2024/01/26 01:02:41;;;;;;;1.80;1.43;;;9.60;94.80;;;11.18;64.22;98644.69;5072801;28;20479;-63
2024/01/26 01:05:08;;;;;;;3.87;1.40;;;9.70;94.50;;;11.20;64.27;98649.88;5073608;28;20036;-63
2024/01/26 01:07:37;;;;;;;1.90;1.23;;;9.70;94.50;;;11.23;64.45;98655.78;5073480;28;20057;-63
2024/01/26 01:10:05;;;;;;;1.87;1.20;;;9.80;94.20;;;11.26;64.02;98654.63;5073805;28;20040;-63
2024/01/26 01:12:33;;;;;;;2.40;1.10;;;9.70;94.00;;;11.25;64.29;98657.47;5073318;28;20067;-64
2024/01/26 01:15:00;;;;;;;1.77;1.17;;;9.80;94.20;;;11.26;64.09;98651.13;5073726;28;20415;-63
2024/01/26 01:17:32;;;;;;;1.37;0.83;;;9.80;94.20;;;11.29;63.79;98646.38;5074245;28;20037;-63
2024/01/26 01:20:00;;;;;;;2.90;1.23;;;9.80;94.20;;;11.28;63.99;98651.84;5073870;28;20068;-63
2024/01/26 01:22:27;;;;;;;0.97;0.90;;;9.80;94.20;;;11.31;63.87;98648.91;5073259;28;20048;-63
2024/01/26 01:24:55;;;;;;;1.50;0.90;;;9.70;94.00;;;11.33;64.10;98649.59;5073539;28;20499;-63
2024/01/26 01:27:23;;;;;;;2.23;1.10;;;9.80;93.90;;;11.35;63.58;98659.13;5073429;28;20427;-63
2024/01/26 01:29:50;;;;;;;1.33;0.93;;;9.80;93.50;;;11.35;63.79;98643.13;5071889;28;20093;-63
2024/01/26 01:32:18;;;;;;;1.10;1.00;;;9.80;93.30;;;11.39;63.66;98654.34;5072084;28;20053;-63
2024/01/26 01:34:45;;;;;;;1.43;0.83;;;9.80;93.20;;;11.38;63.52;98652.66;5070225;28;20287;-64
2024/01/26 01:37:13;;;;;;;1.43;1.03;;;9.80;93.40;;;11.38;63.67;98648.19;5071936;28;20055;-63
2024/01/26 01:39:41;;;;;;;1.33;1.00;;;9.80;93.20;;;11.41;63.63;98647.06;5073244;28;20037;-63
2024/01/26 01:42:14;;;;;;;3.53;1.00;;;9.80;93.10;;;11.39;63.55;98641.88;5073220;28;20037;-63
2024/01/26 01:44:45;;;;;;;1.27;1.03;;;9.80;93.50;;;11.41;63.78;98639.88;5072706;28;20041;-64
2024/01/26 01:47:15;;;;;;;2.10;1.40;;;9.70;93.40;;;11.40;63.74;98629.41;5072973;28;20056;-63
2024/01/26 01:49:44;;;;;;;1.10;1.00;;;9.70;93.30;;;11.37;63.58;98630.50;5073343;28;20048;-63
2024/01/26 01:52:18;;;;;;;1.53;1.00;;;9.70;93.60;;;11.37;63.34;98629.66;5071993;28;20052;-63
2024/01/26 01:54:49;;;;;;;;;;;9.70;93.50;;;11.34;63.53;98630.81;5071759;28;20045;-63
2024/01/26 01:57:19;;;;;;;1.57;1.00;;;9.70;93.30;;;11.35;63.45;98632.47;5071955;28;19920;-63
2024/01/26 01:59:46;;;;;;;1.33;1.10;;;9.70;93.30;;;11.36;63.57;98627.97;5054831;28;20396;-63
2024/01/26 02:02:14;;;;;;;1.03;0.90;;;9.70;93.10;;;11.36;63.59;98630.63;5072761;28;20053;-63
2024/01/26 02:04:42;;;;;;;1.33;1.10;;;9.70;93.10;;;11.37;63.45;98627.00;5072178;28;20044;-63
2024/01/26 02:07:10;;;;;;;1.40;0.80;;;9.80;92.40;;;11.37;63.30;98627.00;5072691;28;20500;-63
2024/01/26 02:09:38;;;;;;;1.07;0.97;;;9.80;92.00;;;11.35;63.22;98628.97;5072481;28;20500;-63
2024/01/26 02:12:06;;;;;;;1.20;1.00;;;9.70;91.60;;;11.35;63.38;98634.31;5073171;28;20040;-63
2024/01/26 02:14:33;;;;;;;1.47;0.87;;;9.70;91.90;;;11.35;63.48;98634.31;5053962;28;20044;-63
2024/01/26 02:17:02;;;;;;;2.20;1.10;;;9.70;92.10;;;11.36;63.32;98631.50;5072564;28;20051;-63
2024/01/26 02:19:32;;;;;;;1.73;0.90;;;9.70;91.70;;;11.37;63.48;98635.84;5071033;28;20063;-63
2024/01/26 02:22:00;;;;;;;0.97;0.80;;;9.70;91.90;;;11.39;62.92;98633.03;5071224;28;20051;-64
2024/01/26 02:24:27;;;;;;;1.70;1.10;;;9.70;91.50;;;11.38;63.13;98629.53;5072310;28;20051;-63
2024/01/26 02:26:56;;;;;;;0.97;0.70;;;9.70;91.20;;;11.39;63.13;98635.69;5079151;28;20056;-63
2024/01/26 02:29:23;;;;;;;1.23;0.90;;;9.70;91.40;;;11.40;62.98;98626.72;5072368;28;20504;-63
2024/01/26 02:31:51;;;;;;;2.57;0.90;;;9.70;91.20;;;11.41;62.64;98625.72;5071132;28;20047;-62
2024/01/26 02:34:19;;;;;;;1.73;0.63;;;9.70;90.90;;;11.41;62.85;98626.56;5070027;28;20526;-62
2024/01/26 02:36:47;;;;;;;1.27;1.00;;;9.70;91.00;;;11.39;62.72;98627.69;5071598;28;20040;-62
2024/01/26 02:39:15;;;;;;;0.77;0.70;;;9.60;91.00;;;11.35;62.56;98632.47;5071924;28;20053;-62
2024/01/26 02:41:43;;;;;;;1.47;1.00;;;9.60;91.30;;;11.32;62.92;98635.44;5071941;28;20039;-63
2024/01/26 02:44:10;;;;;;;1.37;0.63;;;9.50;91.10;;;11.28;62.79;98634.00;5071697;28;20059;-62
2024/01/26 02:46:38;;;;;;;1.10;0.70;;;9.50;91.30;;;11.25;62.76;98628.97;5071880;28;20524;-62
2024/01/26 02:49:05;;;;;;;1.70;0.90;;;9.50;91.30;;;11.20;62.63;98618.72;5071960;28;20037;-62
2024/01/26 02:51:33;;;;;;;1.50;0.70;;;9.50;91.60;;;11.19;62.95;98624.22;5071898;28;20041;-62
2024/01/26 02:54:01;;;;;;;0.60;0.60;;;9.50;92.30;;;11.19;62.67;98617.06;5070579;28;20048;-62
2024/01/26 02:56:29;;;;;;;1.17;0.87;;;9.50;91.10;;;11.19;62.98;98616.22;5071879;28;20052;-62
2024/01/26 02:58:56;;;;;;;2.77;2.40;;;9.50;90.80;;;11.20;62.60;98629.38;5071613;28;20051;-63
2024/01/26 03:01:24;;;;;;;1.70;0.90;;;9.50;90.80;;;11.20;62.75;98634.72;5072135;28;20048;-62
2024/01/26 03:03:52;;;;;;;1.10;0.70;;;9.50;90.40;;;11.21;62.55;98630.25;5071226;28;20043;-63
2024/01/26 03:06:19;;;;;;;0.80;0.80;;;9.50;90.60;;;11.23;62.80;98626.44;5071493;28;20052;-63
2024/01/26 03:08:47;;;;;;;1.53;0.70;;;9.50;90.30;;;11.22;62.61;98619.44;5071802;28;20059;-63
2024/01/26 03:11:15;;;;;;;0.80;0.77;;;9.50;89.70;;;11.21;62.16;98617.75;5069435;28;20448;-63
2024/01/26 03:13:42;;;;;;;1.47;0.90;;;9.50;89.70;;;11.17;62.33;98620.84;5063139;28;20040;-63
2024/01/26 03:16:10;;;;;;;1.73;1.17;;;9.40;89.70;;;11.17;62.45;98616.34;5071423;28;20047;-63
2024/01/26 03:18:38;;;;;;;1.37;0.63;;;9.40;89.30;;;11.18;62.28;98618.03;5071471;28;20055;-63
2024/01/26 03:21:06;;;;;;;1.13;0.80;;;9.40;89.60;;;11.19;62.29;98624.22;5071362;28;20447;-62
2024/01/26 03:23:33;;;;;;;0.90;0.70;;;9.40;89.30;;;11.19;62.27;98621.56;5071026;28;20375;-62
2024/01/26 03:26:01;;;;;;;1.53;0.57;;;9.50;89.70;;;11.19;62.14;98621.56;5071572;28;20047;-62
2024/01/26 03:28:29;;;;;;;1.27;0.90;;;9.40;89.60;;;11.19;62.48;98633.03;5071220;28;20044;-62
2024/01/26 03:30:57;;;;;;;0.73;0.73;;;9.40;90.00;;;11.18;62.05;98627.84;5069490;28;20041;-63
2024/01/26 03:33:24;;;;;;;1.50;0.50;;;9.40;89.90;;;11.19;61.86;98632.22;5070744;28;20037;-63
2024/01/26 03:35:52;;;;;;;0.67;0.67;;;9.40;90.00;;;11.18;62.52;98631.34;5070933;28;20040;-62
2024/01/26 03:38:20;;;;;;;0.80;0.60;;;9.40;89.80;;;11.19;62.17;98641.03;5070215;28;20041;-63
2024/01/26 03:40:48;;;;;;;0.60;0.60;;;9.40;90.10;;;11.19;62.42;98633.03;5071318;28;20048;-62
2024/01/26 03:43:15;;;;;;;1.10;0.80;;;9.40;89.60;;;11.17;62.00;98634.19;5070813;28;20041;-63
2024/01/26 03:45:43;;;;;;;0.50;0.50;;;9.40;89.60;;;11.15;62.24;98634.31;5070797;28;20151;-62
2024/01/26 03:48:11;;;;;;;0.80;0.70;;;9.40;90.10;;;11.12;62.15;98625.75;5071521;28;20049;-63
2024/01/26 03:50:39;;;;;;;0.70;0.70;;;9.30;90.10;;;11.13;62.42;98619.47;5071156;28;20040;-63
2024/01/26 03:53:06;;;;;;;1.27;0.80;;;9.30;89.70;;;11.12;62.03;98628.41;5070856;28;20063;-63
2024/01/26 03:55:34;;;;;;;1.03;0.87;;;9.30;90.10;;;11.11;62.19;98626.72;5071026;28;20041;-62
2024/01/26 03:58:02;;;;;;;1.03;0.80;;;9.40;89.70;;;11.07;62.02;98628.00;5070866;28;20294;-63
2024/01/26 04:00:29;;;;;;;2.93;1.67;;;9.30;89.70;;;11.06;62.08;98627.16;5071027;28;20049;-63
2024/01/26 04:02:57;;;;;;;1.53;0.93;;;9.30;89.70;;;11.06;62.24;98618.31;5070912;28;20044;-63
2024/01/26 04:05:25;;;;;;;1.27;0.80;;;9.30;89.60;;;11.03;62.38;98625.63;5070860;28;20047;-63
2024/01/26 04:07:52;;;;;;;2.53;1.10;;;9.30;89.80;;;11.03;62.01;98628.28;5070646;28;20044;-63
2024/01/26 04:10:20;;;;;;;5.50;1.57;;;9.30;89.50;;;11.06;62.20;98621.81;5071063;28;20495;-63
2024/01/26 04:12:48;;;;;;;0.77;0.70;;;9.30;89.50;;;11.08;62.07;98619.03;5061085;28;20059;-63
2024/01/26 04:15:15;;;;;;;2.40;1.17;;;9.30;89.20;;;11.08;62.09;98611.88;5075916;28;20499;-63
2024/01/26 04:17:43;;;;;;;0.93;0.90;;;9.30;89.20;;;11.09;62.00;98620.69;5075859;28;20043;-63
2024/01/26 04:20:11;;;;;;;1.03;0.80;;;9.40;88.60;;;11.08;62.06;98619.03;5076216;28;20451;-63
2024/01/26 04:22:38;;;;;;;1.10;1.00;;;9.30;88.80;;;11.07;61.78;98614.66;5076260;28;20138;-63
2024/01/26 04:25:06;;;;;;;1.50;1.03;;;9.30;89.10;;;11.09;61.98;98612.69;5077595;28;20044;-63
2024/01/26 04:27:34;;;;;;;1.70;1.10;;;9.30;89.10;;;11.11;62.22;98606.28;5077506;28;20071;-63
2024/01/26 04:30:03;;;;;;;1.50;1.17;;;9.30;88.80;;;11.12;61.93;98613.25;5077578;28;20045;-63
2024/01/26 04:32:30;;;;;;;1.47;1.07;;;9.30;89.00;;;11.15;61.74;98609.50;5075823;28;20044;-63
2024/01/26 04:34:58;;;;;;;1.30;1.03;;;9.40;88.50;;;11.12;61.85;98612.44;5073697;28;20048;-63
2024/01/26 04:37:26;;;;;;;1.87;0.90;;;9.30;88.60;;;11.13;61.77;98611.47;5075606;28;20504;-62
2024/01/26 04:39:53;;;;;;;1.10;1.00;;;9.30;88.70;;;11.14;61.84;98600.63;5077383;28;20037;-62
2024/01/26 04:42:21;;;;;;;1.83;0.90;;;9.40;88.60;;;11.14;61.89;98589.13;5076180;28;20384;-63
2024/01/26 04:44:51;;;;;;;1.80;1.00;;;9.40;88.30;;;11.10;61.58;98593.91;5068953;28;20496;-62
2024/01/26 04:47:18;;;;;;;2.40;2.00;;;9.30;88.40;;;11.09;61.48;98591.38;5076140;28;20052;-63
2024/01/26 04:49:46;;;;;;;3.87;1.33;;;9.30;88.50;;;11.08;61.72;98595.03;5076149;28;20056;-63
2024/01/26 04:52:15;;;;;;;1.43;1.10;;;9.30;88.40;;;11.08;61.65;98592.38;5076289;28;20519;-63
2024/01/26 04:54:42;;;;;;;4.00;1.57;;;9.30;88.50;;;11.03;61.82;98593.66;5076576;28;20048;-63
2024/01/26 04:57:10;;;;;;;2.87;1.87;;;9.20;88.60;;;11.02;61.40;98597.28;5077401;28;20066;-63
2024/01/26 04:59:38;;;;;;;4.57;2.90;;;9.20;88.50;;;10.99;61.50;98597.56;5076058;28;20048;-63
2024/01/26 05:02:05;;;;;;;7.30;3.27;;;9.20;88.80;;;11.02;61.78;98597.28;5077341;28;20048;-63
2024/01/26 05:04:33;;;;;;;3.40;1.70;;;9.20;88.90;;;11.02;61.69;98599.13;5075722;28;20044;-62
2024/01/26 05:07:00;;;;;;;2.50;1.63;;;9.30;89.00;;;11.03;61.63;98609.63;5076909;28;20036;-63
2024/01/26 05:09:28;;;;;;;4.63;2.73;;;9.30;88.50;;;11.01;61.72;98608.94;5077091;28;20518;-63
2024/01/26 05:11:56;;;;;;;6.50;3.27;;;9.20;88.50;;;11.05;61.92;98604.16;5075526;28;20127;-63
2024/01/26 05:14:24;;;;;;;3.50;2.37;;;9.30;88.70;;;11.06;61.76;98605.00;5077188;28;20045;-63
2024/01/26 05:16:52;;;;;;;2.30;1.80;;;9.30;88.80;;;11.04;61.96;98603.31;5076962;28;20032;-63
2024/01/26 05:19:19;;;;;;;1.90;1.50;;;9.20;88.80;;;11.03;61.73;98606.09;5077136;28;20044;-63
2024/01/26 05:21:47;;;;;;;3.50;1.77;;;9.20;88.90;;;11.06;61.63;98613.84;5077150;28;20048;-64
2024/01/26 05:24:15;;;;;;;2.30;1.50;;;9.30;88.90;;;11.09;61.57;98610.03;5076586;28;20045;-63
2024/01/26 05:26:42;;;;;;;1.13;1.03;;;9.30;88.60;;;11.14;61.96;98611.28;5073438;28;20657;-63
2024/01/26 05:29:10;;;;;;;2.90;1.10;;;9.40;88.40;;;11.12;61.94;98613.25;5073820;28;20051;-63
2024/01/26 05:31:41;;;;;;;1.20;1.10;;;9.40;88.10;;;11.14;61.61;98605.97;5073384;28;20052;-62
2024/01/26 05:34:09;;;;;;;0.93;0.73;;;9.40;88.30;;;11.16;61.89;98598.66;5072178;28;20048;-63
2024/01/26 05:36:43;;;;;;;1.17;0.83;;;9.40;88.30;;;11.19;61.62;98597.56;5072716;28;20508;-63
2024/01/26 05:39:11;;;;;;;2.27;1.20;;;9.50;88.20;;;11.21;61.46;98604.44;5073718;28;20042;-63
2024/01/26 05:41:39;;;;;;;1.63;0.90;;;9.50;87.80;;;11.22;61.57;98592.78;5073318;28;20048;-63
2024/01/26 05:44:07;;;;;;;1.87;0.80;;;9.50;87.90;;;11.22;61.83;98592.78;5072049;28;20416;-62
2024/01/26 05:46:34;;;;;;;0.73;0.73;;;9.50;87.30;;;11.26;61.72;98605.81;5072197;28;20055;-63
2024/01/26 05:49:02;;;;;;;2.37;1.03;;;9.60;87.20;;;11.30;61.61;98593.88;5073167;28;20048;-63
2024/01/26 05:51:34;;;;;;;1.43;1.07;;;9.60;87.20;;;11.33;61.52;98591.78;5072235;28;20052;-63
2024/01/26 05:54:02;;;;;;;1.77;1.07;;;9.70;87.00;;;11.35;61.53;98597.81;5071642;28;20040;-63
2024/01/26 05:56:30;;;;;;;3.30;0.80;;;9.70;87.00;;;11.37;61.35;98595.00;5073203;28;20048;-63
2024/01/26 05:58:58;;;;;;;1.30;1.10;;;9.70;86.60;;;11.39;61.36;98587.72;5063783;28;20041;-63
2024/01/26 06:01:25;;;;;;;0.97;0.80;;;9.70;86.50;;;11.39;61.21;98591.22;5073008;28;20495;-63
2024/01/26 06:03:53;;;;;;;2.47;1.00;;;9.70;86.50;;;11.41;61.20;98586.56;5072722;28;20033;-62
2024/01/26 06:06:21;;;;;;;1.23;0.73;;;9.80;86.70;;;11.41;61.10;98586.56;5073286;28;20119;-62
2024/01/26 06:08:48;;;;;;;0.70;0.70;;;9.80;86.20;;;11.39;60.94;98599.19;5072716;28;20056;-63
2024/01/26 06:11:17;;;;;;;0.87;0.70;;;9.70;86.50;;;11.39;61.57;98601.88;5072959;28;20048;-63
2024/01/26 06:13:45;;;;;;;1.53;0.80;;;9.70;86.50;;;11.40;61.56;98608.06;5070885;28;20055;-63
2024/01/26 06:16:14;;;;;;;1.23;0.90;;;9.80;86.50;;;11.39;61.60;98609.88;5072588;28;20040;-63
2024/01/26 06:18:43;;;;;;;1.33;0.87;;;9.80;86.40;;;11.39;61.61;98609.03;5072452;28;20040;-63
2024/01/26 06:21:12;;;;;;;0.90;0.70;;;9.80;87.10;;;11.39;61.38;98599.19;5071582;28;20079;-63
2024/01/26 06:23:39;;;;;;;1.50;0.90;;;9.80;87.60;;;11.38;61.92;98602.88;5072428;28;20040;-63
2024/01/26 06:26:07;;;;;;;2.03;1.10;;;9.90;87.60;;;11.37;61.79;98600.34;5071300;28;20071;-63
2024/01/26 06:28:35;;;;;;;0.83;0.80;;;9.80;87.40;;;11.38;61.94;98602.00;5072506;28;20071;-63
2024/01/26 06:31:03;;;;;;;0.97;0.70;;;9.80;87.50;;;11.40;62.18;98603.56;5072643;28;20412;-63
2024/01/26 06:33:30;;;;;;;2.00;0.87;;;9.90;88.10;;;11.41;62.25;98615.06;5072079;28;20415;-63
2024/01/26 06:35:58;;;;;;;2.50;1.10;;;9.90;87.90;;;11.40;61.93;98619.56;5072378;28;20047;-63
2024/01/26 06:38:26;;;;;;;1.77;1.23;;;9.90;88.30;;;11.37;62.31;98611.00;5071294;28;20040;-63
2024/01/26 06:40:53;;;;;;;2.07;1.23;;;9.90;89.20;;;11.38;62.42;98604.66;5072240;28;20040;-63
2024/01/26 06:43:21;;;;;;;1.53;0.90;;;9.90;89.50;;;11.39;62.67;98612.53;5070852;28;20423;-63
2024/01/26 06:45:49;;;;;;;1.10;0.90;;;9.90;89.80;;;11.39;62.72;98607.19;5070929;28;20048;-66
2024/01/26 06:48:16;;;;;;;1.10;0.90;;;9.90;89.80;;;11.39;62.98;98591.22;5072462;28;20070;-65
2024/01/26 06:50:44;;;;;;;1.17;1.00;;;9.90;89.90;;;11.43;62.55;98605.09;5072265;28;20044;-66
2024/01/26 06:53:12;;;;;;;1.40;1.10;;;9.90;90.00;;;11.47;62.71;98606.47;5071847;28;20048;-68
2024/01/26 06:55:39;;;;;;;1.93;0.90;;;9.90;89.60;;;11.48;62.38;98608.19;5071781;28;20526;-68
2024/01/26 06:58:07;;;;;;;1.27;0.90;;;9.90;89.60;;;11.46;62.79;98603.97;5072218;28;20041;-70
2024/01/26 07:00:35;;;;;;;1.80;1.17;;;9.90;89.30;;;11.49;62.57;98611.69;5072148;28;20040;-68
2024/01/26 07:03:03;;;;;;;3.07;1.20;;;9.90;89.60;;;11.51;62.36;98605.22;5072003;28;20040;-67
2024/01/26 07:05:31;;;;;;;1.10;1.00;;;10.00;89.30;;;11.55;62.69;98600.44;5070668;28;20415;-69
2024/01/26 07:07:59;;;;;;;1.43;1.10;;;10.00;89.20;;;11.55;62.34;98593.28;5071760;28;20044;-69
2024/01/26 07:10:26;;;;;;;1.43;1.20;;;10.00;89.60;;;11.57;62.30;98599.31;5071872;28;20045;-68
2024/01/26 07:12:54;;;;;;;1.40;1.00;;;9.90;89.10;;;11.58;62.50;98608.16;5071428;28;20067;-67
2024/01/26 07:15:21;;;;;;;1.07;0.80;;;9.90;89.40;;;11.57;62.50;98593.13;5071419;28;20416;-66
2024/01/26 07:17:49;;;;;;;2.40;1.17;;;10.00;89.10;;;11.56;62.07;98602.13;5071354;28;20052;-68
2024/01/26 07:20:17;;;;;;;1.50;0.93;;;10.00;88.80;;;11.55;62.64;98590.59;5061897;28;20397;-68
2024/01/26 07:22:44;;;;;;;1.80;1.23;;;9.90;88.30;;;11.56;62.43;98589.63;5071044;28;20488;-67
2024/01/26 07:25:18;;;;;;;1.17;1.00;;;9.90;88.90;;;11.56;62.22;98586.97;5071346;28;20424;-66
2024/01/26 07:27:47;;;;;;;1.57;1.20;;;9.90;88.30;;;11.56;62.18;98578.13;5071063;28;20049;-66
2024/01/26 07:30:17;;;;;;;2.00;1.13;;;9.90;88.60;;;11.58;62.25;98593.00;5071343;28;20048;-67
2024/01/26 07:32:45;;;;;;;0.77;0.77;;;10.00;88.20;;;11.59;62.37;98580.50;5069557;28;20527;-63
2024/01/26 07:35:13;;;;;;;2.60;1.20;;;10.00;88.10;;;11.61;62.04;98571.38;5066738;28;20055;-65
2024/01/26 07:37:41;;;;;;;1.83;1.00;;;10.00;88.20;;;11.60;62.36;98574.19;5070383;28;20044;-64
2024/01/26 07:40:09;;;;;;;2.80;0.93;;;10.00;87.90;;;11.58;62.15;98585.00;5070958;28;20037;-64
2024/01/26 07:42:37;;;;;;;1.13;0.90;;;10.00;87.90;;;11.59;61.89;98591.16;5070688;28;20396;-63
2024/01/26 07:45:05;;;;;;;1.43;0.73;;;10.00;87.70;;;11.60;61.81;98591.03;5069650;28;20519;-65
2024/01/26 07:47:35;;;;;;;1.90;1.00;;;10.00;87.60;;;11.64;62.10;98586.25;5070637;28;20049;-64
2024/01/26 07:50:03;;;;;;;1.13;0.80;;;10.10;87.20;;;11.69;61.75;98594.66;5070094;28;20514;-65
2024/01/26 07:52:31;;;;;;;1.43;1.20;;;10.10;87.40;;;11.72;61.79;98581.00;5070720;28;20503;-65
2024/01/26 07:54:58;;;;;;;1.13;0.90;;;10.20;86.80;;;11.74;61.67;98576.38;5070831;28;20075;-62
2024/01/26 07:57:26;;;;;;;0.90;0.90;;;10.20;87.20;;;11.76;61.53;98568.22;5070881;28;20496;-68
2024/01/26 07:59:54;;;;;;;1.60;1.00;;;10.20;87.00;;;11.78;61.91;98567.09;5070665;28;20052;-67
2024/01/26 08:02:22;;;;;;;3.20;1.37;;;10.20;87.20;;;11.79;61.56;98574.13;5070903;28;20040;-65
2024/01/26 08:04:53;;;;;;;2.77;1.43;;;10.20;87.00;;;11.79;61.86;98558.09;5070565;28;20401;-64
2024/01/26 08:07:22;;;;;;;1.27;0.90;;;10.20;86.70;;;11.81;61.74;98563.31;5069513;28;20055;-63
2024/01/26 08:09:49;;;;;;;1.53;1.10;;;10.20;86.30;;;11.81;61.42;98561.47;5070647;28;20049;-64
2024/01/26 08:12:17;;;;;;;1.00;0.80;;;10.20;86.40;;;11.82;61.76;98559.63;5069188;28;20075;-63
2024/01/26 08:15:06;;;;;;;0.93;0.63;;;10.30;86.40;;;11.83;61.66;98566.66;5070685;28;20048;-64
2024/01/26 08:17:34;;;;;;;1.33;0.90;;;10.30;85.90;;;11.86;61.60;98570.84;5070458;28;20047;-64
2024/01/26 08:20:03;;;;;;;1.20;0.87;;;10.30;85.90;;;11.90;61.59;98574.94;5068938;28;20059;-63
2024/01/26 08:22:32;;;;;;;1.20;0.93;;;10.40;85.30;;;11.89;61.46;98579.44;5070695;28;20053;-64
2024/01/26 08:25:00;;;;;;;1.33;0.90;;;10.40;85.30;;;11.84;61.39;98568.34;5070399;28;20032;-64
2024/01/26 08:27:28;;;;;;;1.87;1.00;;;10.40;85.20;;;11.86;61.10;98552.19;5070666;28;20059;-63
2024/01/26 08:29:55;;;;;;;1.77;0.97;;;10.30;85.30;;;11.87;61.23;98546.69;5069488;28;20082;-64
2024/01/26 08:32:23;;;;;;;1.17;1.07;;;10.30;85.20;;;11.87;61.47;98536.03;5070689;28;20055;-63
2024/01/26 08:34:51;;;;;;;2.43;1.13;;;10.30;85.20;;;11.88;61.44;98532.34;5070212;28;20045;-63
2024/01/26 08:37:19;;;;;;;1.33;1.07;;;10.30;85.40;;;11.89;61.34;98531.41;5069998;28;20496;-63
2024/01/26 08:39:47;;;;;;;1.35;0.85;;;10.40;84.80;;;11.91;61.06;98520.59;5068534;28;20075;-63
2024/01/26 08:42:14;;;;;;;2.40;1.17;;;10.40;85.20;;;11.91;61.24;98521.44;5070329;28;20037;-63
2024/01/26 08:44:42;;;;;;;1.17;1.00;;;10.40;84.60;;;11.94;61.12;98520.28;5069250;28;20499;-63
2024/01/26 08:47:10;;;;;;;1.47;1.03;;;10.40;84.80;;;11.96;61.26;98521.84;5070674;28;20044;-63
2024/01/26 08:49:38;;;;;;;1.03;0.80;;;10.40;84.60;;;11.97;61.12;98528.84;5070440;28;20397;-63
2024/01/26 08:52:05;;;;;;;1.10;1.00;;;10.40;83.90;;;11.93;60.91;98507.94;5068572;28;20052;-63
2024/01/26 08:54:33;;;;;;;1.53;1.00;;;10.50;84.30;;;11.96;61.01;98515.63;5069945;28;20044;-63
2024/01/26 08:57:01;;;;;;;1.90;1.30;;;10.50;84.30;;;11.92;61.23;98517.78;5070411;28;20040;-63
2024/01/26 08:59:28;;;;;;;1.30;1.03;;;10.50;83.60;;;11.90;61.30;98503.72;5069258;28;20044;-63
2024/01/26 09:01:56;;;;;;;1.13;0.93;;;10.50;83.60;;;11.93;61.03;98502.63;5073299;28;20044;-63
2024/01/26 09:04:24;;;;;;;1.90;1.00;;;10.50;83.50;;;11.98;60.80;98516.34;5072361;28;20044;-63
2024/01/26 09:06:51;;;;;;;1.50;1.10;;;10.60;83.00;;;11.97;60.86;98510.16;5074359;28;20045;-63
2024/01/26 09:09:30;;;;;;;4.77;1.33;;;10.60;83.40;;;12.06;60.89;98511.13;5073629;28;20047;-63
2024/01/26 09:11:58;;;;;;;1.43;1.17;;;10.70;82.70;;;12.08;60.85;98502.94;5073821;28;20421;-63
2024/01/26 09:14:26;;;;;;;1.23;0.90;;;10.80;82.60;;;12.12;60.52;98502.50;5069570;28;20049;-63
2024/01/26 09:16:53;;;;;;;1.53;1.10;;;10.80;82.20;;;12.14;60.66;98502.34;5073779;28;20085;-63
2024/01/26 09:19:21;;;;;;;1.60;1.10;;;10.80;81.90;;;12.11;60.63;98503.47;5073972;28;20415;-64
2024/01/26 09:21:50;;;;;;;1.73;1.10;;;10.80;81.40;;;12.13;60.45;98509.50;5072832;28;20048;-63
2024/01/26 09:24:18;;;;;;;2.47;1.20;;;10.80;81.90;;;12.18;60.41;98504.56;5072464;28;20515;-63
2024/01/26 09:26:46;;;;;;;1.87;1.60;;;10.80;81.50;;;12.12;60.32;98501.66;5073587;28;20040;-63
2024/01/26 09:29:14;;;;;;;2.17;0.73;;;10.80;81.20;;;12.14;60.51;98502.34;5072452;28;20464;-64
2024/01/26 09:31:41;;;;;;;2.30;1.03;;;10.80;81.70;;;12.04;60.27;98510.44;5073732;28;20630;-63
2024/01/26 09:34:09;;;;;;;1.10;0.93;;;10.80;81.70;;;12.08;60.33;98514.47;5071401;28;20045;-63
2024/01/26 09:36:37;;;;;;;1.53;1.07;;;10.80;81.50;;;12.04;60.39;98507.75;5073497;28;20041;-63
2024/01/26 09:39:04;;;;;;;2.03;1.20;;;10.80;81.80;;;12.10;60.14;98507.16;5072335;28;20052;-63
2024/01/26 09:41:32;;;;;;;1.50;1.10;;;10.80;81.50;;;12.19;60.29;98498.25;5073580;28;20419;-63
2024/01/26 09:44:01;;;;;;;1.10;0.90;;;10.90;81.60;;;12.23;59.91;98496.09;5071791;28;20501;-64
2024/01/26 09:46:30;;;;;;;2.27;1.30;;;10.90;81.60;;;12.24;60.24;98492.44;5073860;28;20412;-64
2024/01/26 09:48:59;;;;;;;1.87;1.00;;;10.90;81.30;;;12.31;60.45;98493.53;5073354;28;20427;-64
2024/01/26 09:51:27;;;;;;;1.00;0.87;;;11.00;81.80;;;12.32;60.34;98495.19;5073230;28;20048;-65
2024/01/26 09:53:59;;;;;;;1.43;1.00;;;11.00;81.80;;;12.37;60.37;98494.75;5072816;28;20036;-65
2024/01/26 09:56:28;;;;;;;1.40;1.13;;;11.10;81.70;;;12.36;60.36;98501.91;5071810;28;20047;-65
2024/01/26 09:58:56;;;;;;;2.30;1.47;;;11.00;81.30;;;12.43;60.25;98496.81;5072066;28;20047;-65
2024/01/26 10:01:24;;;;;;;1.55;1.08;;;11.10;81.80;;;12.42;60.32;98505.81;5073269;28;20429;-64
2024/01/26 10:03:52;;;;;;;1.40;1.00;;;11.10;81.50;;;12.43;60.22;98493.28;5071196;28;20044;-64
2024/01/26 10:06:21;;;;;;;1.83;1.10;;;11.00;81.70;;;12.47;59.93;98498.19;5073111;28;20040;-64
2024/01/26 10:08:49;;;;;;;1.85;1.17;;;11.10;81.80;;;12.49;59.91;98504.22;5072844;28;20040;-66
2024/01/26 10:11:17;;;;;;;4.43;1.52;;;11.20;81.70;;;12.52;60.16;98511.06;5072581;28;20040;-64
2024/01/26 10:13:44;;;;;;;1.65;1.20;;;11.20;81.30;;;12.52;59.67;98505.72;5071681;28;20503;-64
2024/01/26 10:16:12;;;;;;;2.15;1.15;;;11.20;80.80;;;12.57;59.87;98498.09;5072591;28;20060;-66
2024/01/26 10:18:45;;;;;;;1.33;1.10;;;11.20;80.80;;;12.57;59.91;98493.59;5072768;28;20415;-64
2024/01/26 10:21:16;;;;;;;2.17;1.15;;;11.20;80.70;;;12.58;59.34;98492.63;5071734;28;20040;-67
2024/01/26 10:23:44;;;;;;;1.33;1.20;;;11.20;80.40;;;12.63;59.37;98486.81;5071037;28;20044;-67
2024/01/26 10:26:14;;;;;;;1.40;0.95;;;11.20;81.30;;;12.63;59.27;98492.16;5071424;28;20048;-67
2024/01/26 10:28:43;;;;;;;2.25;0.93;;;11.20;79.70;;;12.64;59.38;98483.16;5073174;28;20044;-67